Time;durP1;ratioP1;P1;durP2;ratioP2;P2;SDS_P1;SDS_P2;PMS_P1;PMS_P2;Temp;Humidity;BMP_temperature;BMP_pressure;BME280_temperature;BME280_humidity;BME280_pressure;Samples;Min_cycle;Max_cycle;Signal;HPM_P1;HPM_P2
2023/03/29 00:01:41;;;;;;;7.07;4.17;;;5.40;99.90;;;;;;5011340;28;20252;-63
2023/03/29 00:04:12;;;;;;;8.00;4.67;;;5.30;99.90;;;;;;5005280;28;20209;-63
2023/03/29 00:06:40;;;;;;;4.93;3.73;;;5.30;99.90;;;;;;4990073;28;20755;-63
2023/03/29 00:09:08;;;;;;;6.63;4.30;;;5.30;99.90;;;;;;4972143;28;20562;-63
2023/03/29 00:11:35;;;;;;;6.53;4.13;;;5.30;99.90;;;;;;4995814;28;20206;-64
2023/03/29 00:14:02;;;;;;;5.57;4.13;;;5.30;99.90;;;;;;4993939;28;20601;-63
2023/03/29 00:16:29;;;;;;;7.43;3.77;;;5.30;99.90;;;;;;4998626;28;20218;-63
2023/03/29 00:18:56;;;;;;;5.03;3.67;;;5.30;99.90;;;;;;4980899;28;20205;-63
2023/03/29 00:21:23;;;;;;;7.67;4.30;;;5.30;99.90;;;;;;5003596;28;20229;-63
2023/03/29 00:23:51;;;;;;;9.43;4.07;;;5.30;99.90;;;;;;4990761;28;20229;-63
2023/03/29 00:26:18;;;;;;;5.20;3.47;;;5.30;99.90;;;;;;5005729;28;20205;-63
2023/03/29 00:28:45;;;;;;;9.90;3.93;;;5.30;99.90;;;;;;5002234;28;20581;-64
2023/03/29 00:31:14;;;;;;;6.13;4.07;;;5.30;99.90;;;;;;5016755;28;20302;-63
2023/03/29 00:33:42;;;;;;;11.77;3.97;;;5.30;99.90;;;;;;5018394;28;20232;-63
2023/03/29 00:36:11;;;;;;;6.70;3.70;;;5.20;99.90;;;;;;5010530;28;20221;-63
2023/03/29 00:38:38;;;;;;;8.37;4.30;;;5.20;99.90;;;;;;5010395;28;20216;-63
2023/03/29 00:41:07;;;;;;;6.57;4.00;;;5.20;99.90;;;;;;4993585;28;20227;-64
2023/03/29 00:43:59;;;;;;;7.13;4.27;;;5.20;99.90;;;;;;5012296;28;20209;-63
2023/03/29 00:46:27;;;;;;;5.60;3.97;;;5.20;99.90;;;;;;5022900;28;20206;-63
2023/03/29 00:48:57;;;;;;;5.50;3.80;;;5.20;99.90;;;;;;5024650;28;20211;-63
2023/03/29 00:51:26;;;;;;;6.60;3.60;;;5.20;99.90;;;;;;5006149;28;20205;-63
2023/03/29 00:53:57;;;;;;;6.77;4.03;;;5.10;99.90;;;;;;5009859;28;20268;-63
2023/03/29 00:56:29;;;;;;;5.73;3.97;;;5.10;99.90;;;;;;4993841;28;20209;-63
2023/03/29 00:59:01;;;;;;;8.33;3.40;;;5.10;99.90;;;;;;5017944;28;20210;-63
2023/03/29 01:01:33;;;;;;;6.33;3.50;;;5.10;99.90;;;;;;5001477;28;20206;-63
2023/03/29 01:04:04;;;;;;;5.00;3.63;;;5.00;99.90;;;;;;5025946;28;20209;-64
2023/03/29 01:06:33;;;;;;;6.07;3.53;;;5.10;99.90;;;;;;5009520;28;20956;-63
2023/03/29 01:09:02;;;;;;;8.07;4.43;;;5.00;99.90;;;;;;5014491;28;20366;-63
2023/03/29 01:11:35;;;;;;;6.60;3.47;;;4.90;99.90;;;;;;4996143;28;20212;-63
2023/03/29 01:14:04;;;;;;;4.23;3.33;;;4.90;99.90;;;;;;5018364;28;20233;-63
2023/03/29 01:16:33;;;;;;;6.47;3.17;;;4.90;99.90;;;;;;5010614;28;20205;-63
2023/03/29 01:19:01;;;;;;;5.13;3.40;;;4.90;99.90;;;;;;5023932;28;20972;-63
2023/03/29 01:21:31;;;;;;;12.33;4.00;;;4.90;99.90;;;;;;5012063;28;20301;-64
2023/03/29 01:24:17;;;;;;;7.37;3.30;;;4.90;99.90;;;;;;5007441;28;20336;-63
2023/03/29 01:26:55;;;;;;;6.03;3.30;;;4.80;99.90;;;;;;4988720;28;20216;-63
2023/03/29 01:29:28;;;;;;;8.63;3.57;;;4.80;99.90;;;;;;5008909;28;20208;-63
2023/03/29 01:32:00;;;;;;;8.50;3.77;;;4.80;99.90;;;;;;5019753;28;20309;-63
2023/03/29 01:34:34;;;;;;;6.27;3.37;;;4.80;99.90;;;;;;5019906;28;20319;-64
2023/03/29 01:37:07;;;;;;;7.17;3.50;;;4.80;99.90;;;;;;5007456;28;20228;-63
2023/03/29 01:39:34;;;;;;;6.20;3.40;;;4.80;99.90;;;;;;5010236;28;20205;-63
2023/03/29 01:42:16;;;;;;;6.87;3.37;;;4.80;99.90;;;;;;4998037;28;20282;-63
2023/03/29 01:44:52;;;;;;;4.87;3.20;;;4.70;99.90;;;;;;5008345;28;20205;-63
2023/03/29 01:47:26;;;;;;;4.07;3.00;;;4.70;99.90;;;;;;5016724;28;20206;-63
2023/03/29 01:50:02;;;;;;;6.50;3.40;;;4.70;99.90;;;;;;5015331;28;20692;-63
2023/03/29 01:52:35;;;;;;;7.00;3.47;;;4.70;99.90;;;;;;5003311;28;20197;-63
2023/03/29 01:55:07;;;;;;;4.77;2.90;;;4.70;99.90;;;;;;5007031;28;20233;-64
2023/03/29 01:57:36;;;;;;;5.27;2.90;;;4.70;99.90;;;;;;4992027;28;20215;-63
2023/03/29 02:00:09;;;;;;;3.83;2.93;;;4.60;99.90;;;;;;5004620;28;20204;-64
2023/03/29 02:02:38;;;;;;;4.20;2.87;;;4.70;99.90;;;;;;5020513;28;20202;-63
2023/03/29 02:05:08;;;;;;;8.43;3.00;;;4.60;99.90;;;;;;5007513;28;20212;-63
2023/03/29 02:07:39;;;;;;;6.53;3.00;;;4.60;99.90;;;;;;5000743;28;20206;-63
2023/03/29 02:10:08;;;;;;;5.60;3.00;;;4.50;99.90;;;;;;4996525;28;20212;-63
2023/03/29 02:12:36;;;;;;;4.00;2.70;;;4.50;99.90;;;;;;4992543;28;20212;-63
2023/03/29 02:15:05;;;;;;;4.43;2.63;;;4.50;99.90;;;;;;5020141;28;20239;-63
2023/03/29 02:17:32;;;;;;;6.93;2.90;;;4.50;99.90;;;;;;5012858;28;20574;-63
2023/03/29 02:20:12;;;;;;;5.03;2.60;;;4.40;99.90;;;;;;5021015;28;20198;-63
2023/03/29 02:22:43;;;;;;;4.30;2.93;;;4.40;99.90;;;;;;5016441;28;20315;-63
2023/03/29 02:25:11;;;;;;;4.23;2.67;;;4.40;99.90;;;;;;4995925;28;20232;-63
2023/03/29 02:27:39;;;;;;;3.40;2.77;;;4.40;99.90;;;;;;4992511;28;21030;-64
2023/03/29 02:30:10;;;;;;;6.90;3.07;;;4.50;99.90;;;;;;5018015;28;20207;-63
2023/03/29 02:32:47;;;;;;;6.00;3.10;;;4.50;99.90;;;;;;5015670;28;20927;-63
2023/03/29 02:35:20;;;;;;;6.17;3.53;;;4.50;99.90;;;;;;5018595;28;20235;-63
2023/03/29 02:37:50;;;;;;;8.00;3.20;;;4.50;99.90;;;;;;5008090;28;20197;-63
2023/03/29 02:40:19;;;;;;;5.83;3.30;;;4.60;99.90;;;;;;5008531;28;20232;-63
2023/03/29 02:42:47;;;;;;;4.07;2.90;;;4.60;99.90;;;;;;4992865;28;20692;-63
2023/03/29 02:45:17;;;;;;;3.63;3.10;;;4.60;99.90;;;;;;5011213;28;20218;-63
2023/03/29 02:47:48;;;;;;;4.23;3.00;;;4.60;99.90;;;;;;5012354;28;20225;-63
2023/03/29 02:50:14;;;;;;;10.03;3.47;;;4.60;99.90;;;;;;5019359;28;21169;-63
2023/03/29 02:52:48;;;;;;;6.70;3.40;;;4.60;99.90;;;;;;5015333;28;20201;-63
2023/03/29 02:55:19;;;;;;;4.73;3.33;;;4.60;99.90;;;;;;5010689;28;20225;-64
2023/03/29 02:57:45;;;;;;;8.87;3.73;;;4.60;99.90;;;;;;4993500;28;20212;-63
2023/03/29 03:00:18;;;;;;;7.40;3.30;;;4.60;99.90;;;;;;5014004;28;21019;-63
2023/03/29 03:02:46;;;;;;;6.10;3.33;;;4.60;99.90;;;;;;5022414;28;20208;-63
2023/03/29 03:05:13;;;;;;;8.20;3.50;;;4.60;99.90;;;;;;5018720;28;21993;-63
2023/03/29 03:07:40;;;;;;;5.03;3.67;;;4.60;99.90;;;;;;5015644;28;20200;-63
2023/03/29 03:10:08;;;;;;;6.73;3.20;;;4.60;99.90;;;;;;5010840;28;20712;-63
2023/03/29 03:12:36;;;;;;;5.50;3.23;;;4.60;99.90;;;;;;4999526;28;20378;-63
2023/03/29 03:15:04;;;;;;;4.27;3.10;;;4.60;99.90;;;;;;5023896;28;20220;-63
2023/03/29 03:17:33;;;;;;;6.17;3.50;;;4.60;99.90;;;;;;5015203;28;20201;-64
2023/03/29 03:19:59;;;;;;;8.20;3.80;;;4.70;99.90;;;;;;5013491;28;20208;-63
2023/03/29 03:22:26;;;;;;;7.43;4.07;;;4.70;99.90;;;;;;5012000;28;22520;-63
2023/03/29 03:24:53;;;;;;;5.70;3.83;;;4.80;99.90;;;;;;5030399;28;20202;-63
2023/03/29 03:27:20;;;;;;;4.60;3.73;;;4.80;99.90;;;;;;4976582;28;20208;-63
2023/03/29 03:29:47;;;;;;;4.60;3.43;;;4.80;99.90;;;;;;5022501;28;20197;-63
2023/03/29 03:32:14;;;;;;;9.10;4.33;;;4.80;99.90;;;;;;5023520;28;20620;-63
2023/03/29 03:34:42;;;;;;;6.57;4.17;;;4.90;99.90;;;;;;5010349;28;20230;-63
2023/03/29 03:37:10;;;;;;;8.60;4.20;;;4.90;99.90;;;;;;5021460;28;20292;-64
2023/03/29 03:39:37;;;;;;;7.83;4.17;;;4.90;99.90;;;;;;5017719;28;20198;-63
2023/03/29 03:42:04;;;;;;;6.60;4.43;;;4.90;99.90;;;;;;5000330;28;20238;-64
2023/03/29 03:44:31;;;;;;;6.33;4.57;;;5.00;99.90;;;;;;5003499;28;20642;-63
2023/03/29 03:46:58;;;;;;;6.87;4.40;;;5.00;99.90;;;;;;5020467;28;20220;-63
2023/03/29 03:49:25;;;;;;;7.00;4.53;;;5.00;99.90;;;;;;5007674;28;20212;-64
2023/03/29 03:51:53;;;;;;;7.03;4.17;;;5.00;99.90;;;;;;5022828;28;20198;-63
2023/03/29 03:54:20;;;;;;;6.10;4.63;;;5.10;99.90;;;;;;5011307;28;20240;-64
2023/03/29 03:56:47;;;;;;;6.90;4.80;;;5.10;99.90;;;;;;5006963;28;20206;-63
2023/03/29 03:59:14;;;;;;;7.67;4.90;;;5.10;99.90;;;;;;4994506;28;20234;-63
2023/03/29 04:01:42;;;;;;;9.23;5.30;;;5.10;99.90;;;;;;4979753;28;21502;-63
2023/03/29 04:04:09;;;;;;;7.50;5.73;;;5.10;99.90;;;;;;4994726;28;20203;-63
2023/03/29 04:06:36;;;;;;;6.57;4.80;;;5.10;99.90;;;;;;4997097;28;20340;-63
2023/03/29 04:09:05;;;;;;;11.67;5.10;;;5.10;99.90;;;;;;5014153;28;20205;-63
2023/03/29 04:11:32;;;;;;;6.87;5.30;;;5.10;99.90;;;;;;5006032;28;20213;-63
2023/03/29 04:13:59;;;;;;;7.27;4.60;;;5.10;99.90;;;;;;4981694;28;20442;-63
2023/03/29 04:16:26;;;;;;;8.80;6.00;;;5.10;99.90;;;;;;5011532;28;20194;-63
2023/03/29 04:18:53;;;;;;;7.60;5.90;;;5.10;99.90;;;;;;4998078;28;20508;-63
2023/03/29 04:21:19;;;;;;;8.17;5.90;;;5.10;99.90;;;;;;5026128;28;20208;-63
2023/03/29 04:23:46;;;;;;;8.80;6.23;;;5.10;99.90;;;;;;4994010;28;20212;-63
2023/03/29 04:26:16;;;;;;;10.43;5.73;;;5.10;99.90;;;;;;5018651;28;20699;-63
2023/03/29 04:28:44;;;;;;;9.53;6.27;;;5.10;99.90;;;;;;4975524;28;20201;-64
2023/03/29 04:31:11;;;;;;;8.57;6.30;;;5.10;99.90;;;;;;5012003;28;20201;-63
2023/03/29 04:33:38;;;;;;;8.90;6.33;;;5.10;99.90;;;;;;5021674;28;20202;-63
2023/03/29 04:36:06;;;;;;;10.60;7.00;;;5.20;99.90;;;;;;5007760;28;20207;-63
2023/03/29 04:38:34;;;;;;;9.77;6.73;;;5.20;99.90;;;;;;5010709;28;20484;-63
2023/03/29 04:41:02;;;;;;;11.27;6.93;;;5.20;99.90;;;;;;5012729;28;20873;-63
2023/03/29 04:43:30;;;;;;;13.63;7.53;;;5.20;99.90;;;;;;5002544;28;20436;-63
2023/03/29 04:45:58;;;;;;;10.40;7.70;;;5.20;99.90;;;;;;5000011;28;20455;-63
2023/03/29 04:48:25;;;;;;;14.97;7.80;;;5.20;99.90;;;;;;5006043;28;20320;-63
2023/03/29 04:50:53;;;;;;;12.03;8.43;;;5.30;99.90;;;;;;5000667;28;20233;-63
2023/03/29 04:53:20;;;;;;;11.23;7.53;;;5.20;99.90;;;;;;4979442;28;20232;-64
2023/03/29 04:55:48;;;;;;;10.60;7.37;;;5.20;99.90;;;;;;5016486;28;20564;-63
2023/03/29 04:58:15;;;;;;;12.83;8.27;;;5.20;99.90;;;;;;4992272;28;20263;-63
2023/03/29 05:00:44;;;;;;;13.73;7.93;;;5.30;99.90;;;;;;4990606;28;20255;-64
2023/03/29 05:03:13;;;;;;;12.07;7.87;;;5.20;99.90;;;;;;5020898;28;21332;-64
2023/03/29 05:05:40;;;;;;;11.27;8.13;;;5.30;99.90;;;;;;5010908;28;20301;-64
2023/03/29 05:08:08;;;;;;;12.57;7.63;;;5.30;99.90;;;;;;5002581;28;20224;-64
2023/03/29 05:10:35;;;;;;;12.63;7.40;;;5.30;99.90;;;;;;5013172;28;20217;-63
2023/03/29 05:13:02;;;;;;;17.10;8.50;;;5.30;99.90;;;;;;4988722;28;20707;-64
2023/03/29 05:15:30;;;;;;;12.23;7.60;;;5.30;99.90;;;;;;4982305;28;20244;-63
2023/03/29 05:17:59;;;;;;;10.20;7.03;;;5.30;99.90;;;;;;5013376;28;20221;-64
2023/03/29 05:20:27;;;;;;;10.77;7.23;;;5.30;99.90;;;;;;4983134;28;20257;-64
2023/03/29 05:22:54;;;;;;;11.97;7.93;;;5.30;99.90;;;;;;5010627;28;20514;-64
2023/03/29 05:25:21;;;;;;;12.90;7.30;;;5.30;99.90;;;;;;5026109;28;20206;-64
2023/03/29 05:27:47;;;;;;;10.13;7.63;;;5.30;99.90;;;;;;4996525;28;20917;-64
2023/03/29 05:30:15;;;;;;;13.87;7.43;;;5.40;99.90;;;;;;4972858;28;20225;-64
2023/03/29 05:32:42;;;;;;;11.37;7.20;;;5.40;99.90;;;;;;5020743;28;20403;-64
2023/03/29 05:35:10;;;;;;;10.43;7.00;;;5.30;99.90;;;;;;5017042;28;20234;-64
2023/03/29 05:37:37;;;;;;;11.43;7.33;;;5.30;99.90;;;;;;5005962;28;20864;-64
2023/03/29 05:40:07;;;;;;;10.50;6.87;;;5.40;99.90;;;;;;5023432;28;20235;-64
2023/03/29 05:42:34;;;;;;;9.60;7.37;;;5.40;99.90;;;;;;5003443;28;20221;-64
2023/03/29 05:45:00;;;;;;;10.47;7.00;;;5.40;99.90;;;;;;4998798;28;20206;-64
2023/03/29 05:47:28;;;;;;;10.07;6.40;;;5.50;99.90;;;;;;4979014;28;20229;-68
2023/03/29 05:49:56;;;;;;;10.87;6.30;;;5.40;99.90;;;;;;4999553;28;20232;-64
2023/03/29 05:52:24;;;;;;;8.80;6.70;;;5.40;99.90;;;;;;5010346;28;20204;-64
2023/03/29 05:54:51;;;;;;;12.13;7.00;;;5.50;99.90;;;;;;5020639;28;20239;-64
2023/03/29 05:57:17;;;;;;;8.60;6.17;;;5.40;99.90;;;;;;5011423;28;20742;-64
2023/03/29 05:59:44;;;;;;;9.27;6.27;;;5.50;99.90;;;;;;4991262;28;20783;-64
2023/03/29 06:02:11;;;;;;;11.20;6.20;;;5.50;99.90;;;;;;4995346;28;20338;-64
2023/03/29 06:04:38;;;;;;;8.57;6.40;;;5.50;99.90;;;;;;5008633;28;21565;-64
2023/03/29 06:07:05;;;;;;;8.93;5.80;;;5.50;99.90;;;;;;4993606;28;20378;-64
2023/03/29 06:09:34;;;;;;;8.57;5.60;;;5.50;99.90;;;;;;5016768;28;20284;-64
2023/03/29 06:12:00;;;;;;;7.77;5.43;;;5.50;99.90;;;;;;5006473;28;20822;-64
2023/03/29 06:14:27;;;;;;;9.77;6.40;;;5.50;99.90;;;;;;5001884;28;20218;-64
2023/03/29 06:16:55;;;;;;;7.03;5.63;;;5.50;99.90;;;;;;4963030;28;20233;-64
2023/03/29 06:19:22;;;;;;;8.27;5.67;;;5.60;99.90;;;;;;4995722;28;20275;-64
2023/03/29 06:21:51;;;;;;;9.90;6.07;;;5.60;99.90;;;;;;4999915;28;20232;-64
2023/03/29 06:24:19;;;;;;;9.53;5.77;;;5.60;99.90;;;;;;4999306;28;20979;-64
2023/03/29 06:26:47;;;;;;;6.40;5.13;;;5.60;99.90;;;;;;5017946;28;20316;-64
2023/03/29 06:29:14;;;;;;;8.97;5.93;;;5.60;99.90;;;;;;4982299;28;20324;-64
2023/03/29 06:31:41;;;;;;;7.70;5.53;;;5.60;99.90;;;;;;4993333;28;20203;-64
2023/03/29 06:34:08;;;;;;;8.53;5.30;;;5.70;99.90;;;;;;4974885;28;20708;-64
2023/03/29 06:36:34;;;;;;;7.50;5.07;;;5.70;99.90;;;;;;5005968;28;20840;-64
2023/03/29 06:39:02;;;;;;;8.87;5.50;;;5.70;99.90;;;;;;4990304;28;20208;-64
2023/03/29 06:41:29;;;;;;;7.73;5.83;;;5.80;99.90;;;;;;5016107;28;20458;-64
2023/03/29 06:43:58;;;;;;;6.97;5.27;;;5.80;99.90;;;;;;5002475;28;20238;-64
2023/03/29 06:46:24;;;;;;;11.27;5.63;;;5.80;99.90;;;;;;5003724;28;20222;-63
2023/03/29 06:48:52;;;;;;;9.50;5.63;;;5.90;99.90;;;;;;4971340;28;20221;-64
2023/03/29 06:51:18;;;;;;;8.30;4.57;;;5.90;99.90;;;;;;5007959;28;21066;-64
2023/03/29 06:53:45;;;;;;;8.57;5.80;;;5.90;99.90;;;;;;4958373;28;21236;-64
2023/03/29 06:56:13;;;;;;;8.60;5.20;;;6.00;99.90;;;;;;5017611;28;20229;-63
2023/03/29 06:58:40;;;;;;;7.23;5.00;;;6.00;99.90;;;;;;5006353;28;20542;-64
2023/03/29 07:01:08;;;;;;;7.27;5.50;;;6.00;99.90;;;;;;5011804;28;20198;-64
2023/03/29 07:03:37;;;;;;;6.83;4.57;;;6.00;99.90;;;;;;4962980;28;20465;-64
2023/03/29 07:06:08;;;;;;;10.03;5.30;;;6.10;99.90;;;;;;5017485;28;20405;-64
2023/03/29 07:08:42;;;;;;;7.50;5.23;;;6.10;99.90;;;;;;4984679;28;20236;-64
2023/03/29 07:11:11;;;;;;;6.47;4.83;;;6.10;99.90;;;;;;5004534;28;21014;-64
2023/03/29 07:13:38;;;;;;;7.50;4.80;;;6.10;99.90;;;;;;5005099;28;20221;-64
2023/03/29 07:16:11;;;;;;;8.97;4.90;;;6.20;99.90;;;;;;5000886;28;20225;-64
2023/03/29 07:18:38;;;;;;;6.47;4.77;;;6.20;99.90;;;;;;4995630;28;20478;-64
2023/03/29 07:21:05;;;;;;;6.73;4.90;;;6.30;99.90;;;;;;4983968;28;20221;-64
2023/03/29 07:23:33;;;;;;;6.27;4.63;;;6.30;99.90;;;;;;4990249;28;20239;-64
2023/03/29 07:26:00;;;;;;;9.57;4.73;;;6.30;99.90;;;;;;4999435;28;20217;-64
2023/03/29 07:28:26;;;;;;;8.57;5.27;;;6.40;99.90;;;;;;5007603;28;20225;-63
2023/03/29 07:30:54;;;;;;;6.27;5.07;;;6.40;99.90;;;;;;4976483;28;20233;-64
2023/03/29 07:33:23;;;;;;;9.33;5.10;;;6.40;99.90;;;;;;5007367;28;20217;-64
2023/03/29 07:35:49;;;;;;;7.50;5.30;;;6.40;99.90;;;;;;4964963;28;20322;-64
2023/03/29 07:38:17;;;;;;;7.73;4.83;;;6.40;99.90;;;;;;4989784;28;20217;-64
2023/03/29 07:40:44;;;;;;;7.10;4.80;;;6.50;99.90;;;;;;4984455;28;20962;-64
2023/03/29 07:43:10;;;;;;;8.25;6.00;;;6.50;99.90;;;;;;5009647;28;20863;-63
2023/03/29 07:45:39;;;;;;;5.90;4.90;;;6.60;99.90;;;;;;5012784;28;21000;-63
2023/03/29 07:48:07;;;;;;;8.27;4.63;;;6.50;99.90;;;;;;4994359;28;20324;-64
2023/03/29 07:50:35;;;;;;;5.37;4.23;;;6.60;99.90;;;;;;4982554;28;20316;-64
2023/03/29 07:53:02;;;;;;;7.47;4.97;;;6.60;99.90;;;;;;4957898;28;20248;-65
2023/03/29 07:55:29;;;;;;;7.90;5.07;;;6.60;99.90;;;;;;4976561;28;20350;-63
2023/03/29 07:57:56;;;;;;;8.23;4.97;;;6.60;99.90;;;;;;5000431;28;20225;-64
2023/03/29 08:00:23;;;;;;;8.33;5.53;;;6.60;99.90;;;;;;4994111;28;20771;-64
2023/03/29 08:02:52;;;;;;;9.73;5.17;;;6.70;99.90;;;;;;4991032;28;20316;-64
2023/03/29 08:05:20;;;;;;;6.93;5.07;;;6.70;99.90;;;;;;4990376;28;24261;-64
2023/03/29 08:07:49;;;;;;;6.50;4.77;;;6.70;99.90;;;;;;4980736;28;20363;-64
2023/03/29 08:10:18;;;;;;;13.83;5.30;;;6.70;99.90;;;;;;4984625;28;20348;-64
2023/03/29 08:12:46;;;;;;;9.27;5.30;;;6.80;99.90;;;;;;4990686;28;20827;-64
2023/03/29 08:15:14;;;;;;;7.37;4.70;;;6.70;99.90;;;;;;5011096;28;20233;-64
2023/03/29 08:17:41;;;;;;;9.00;5.20;;;6.80;99.90;;;;;;4994085;28;20205;-65
2023/03/29 08:20:10;;;;;;;9.70;5.07;;;6.80;99.90;;;;;;4993630;28;20213;-64
2023/03/29 08:22:37;;;;;;;6.77;5.10;;;6.80;99.90;;;;;;4980179;28;20323;-64
2023/03/29 08:25:07;;;;;;;9.40;5.13;;;6.80;99.90;;;;;;4972748;28;20217;-64
2023/03/29 08:27:34;;;;;;;7.50;5.37;;;6.80;99.90;;;;;;4988348;28;20267;-64
2023/03/29 08:30:01;;;;;;;11.27;6.03;;;6.90;99.90;;;;;;5010541;28;20202;-65
2023/03/29 08:32:28;;;;;;;13.67;5.77;;;7.00;99.90;;;;;;5008491;28;20441;-64
2023/03/29 08:34:55;;;;;;;9.17;5.70;;;7.00;99.90;;;;;;5005453;28;20208;-64
2023/03/29 08:37:23;;;;;;;11.93;6.03;;;7.00;99.90;;;;;;4977496;28;20514;-64
2023/03/29 08:39:50;;;;;;;11.43;5.60;;;7.00;99.90;;;;;;5009155;28;20229;-64
2023/03/29 08:42:41;;;;;;;12.80;5.60;;;7.00;99.90;;;;;;4962355;28;20206;-64
2023/03/29 08:45:14;;;;;;;9.07;5.83;;;7.00;99.90;;;;;;5006282;28;20201;-63
2023/03/29 08:47:48;;;;;;;9.43;5.80;;;7.10;99.90;;;;;;5004782;28;20226;-63
2023/03/29 08:50:15;;;;;;;10.10;6.10;;;7.10;99.90;;;;;;5005466;28;20533;-64
2023/03/29 08:52:47;;;;;;;7.13;5.83;;;7.20;99.90;;;;;;4971190;28;20643;-64
2023/03/29 08:55:22;;;;;;;7.10;5.73;;;7.20;99.90;;;;;;5008192;28;20431;-64
2023/03/29 08:57:51;;;;;;;10.47;6.00;;;7.30;99.90;;;;;;4992790;28;20675;-65
2023/03/29 09:00:33;;;;;;;11.47;6.27;;;7.40;99.90;;;;;;4984379;28;20214;-64
2023/03/29 09:03:01;;;;;;;19.30;6.43;;;7.40;99.90;;;;;;4984739;28;23809;-64
2023/03/29 09:05:35;;;;;;;7.90;5.97;;;7.30;99.90;;;;;;5017783;28;20255;-64
2023/03/29 09:08:01;;;;;;;9.03;5.90;;;7.40;99.90;;;;;;4985876;28;20221;-63
2023/03/29 09:10:37;;;;;;;7.97;6.27;;;7.40;99.90;;;;;;5010999;28;20583;-64
2023/03/29 09:13:20;;;;;;;9.93;5.50;;;7.50;99.90;;;;;;4991268;28;20204;-64
2023/03/29 09:15:54;;;;;;;7.53;5.57;;;7.40;99.90;;;;;;5002125;28;20952;-65
2023/03/29 09:18:29;;;;;;;9.70;6.27;;;7.40;99.90;;;;;;5012606;28;20197;-64
2023/03/29 09:21:00;;;;;;;10.47;6.73;;;7.50;99.90;;;;;;4984674;28;20399;-64
2023/03/29 09:23:55;;;;;;;9.73;6.80;;;7.50;99.90;;;;;;4970860;28;20693;-64
2023/03/29 09:26:27;;;;;;;11.60;6.40;;;7.50;99.90;;;;;;5006651;28;20252;-63
2023/03/29 09:29:06;;;;;;;10.43;6.23;;;7.60;99.90;;;;;;4984089;28;20209;-64
2023/03/29 09:31:37;;;;;;;9.93;7.00;;;7.70;99.90;;;;;;5010591;28;20299;-65
2023/03/29 09:34:09;;;;;;;11.83;6.60;;;7.60;99.90;;;;;;5006069;28;20201;-63
2023/03/29 09:36:42;;;;;;;10.73;6.93;;;7.70;99.90;;;;;;4995557;28;20225;-64
2023/03/29 09:39:13;;;;;;;9.03;6.30;;;7.80;99.90;;;;;;4972488;28;20201;-64
2023/03/29 09:41:45;;;;;;;8.23;6.60;;;7.80;99.90;;;;;;5006367;28;20229;-64
2023/03/29 09:44:16;;;;;;;8.50;6.83;;;7.80;99.90;;;;;;4996391;28;20209;-64
2023/03/29 09:46:47;;;;;;;9.83;7.10;;;7.80;99.90;;;;;;5006314;28;20662;-64
2023/03/29 09:49:20;;;;;;;8.00;6.90;;;7.70;99.90;;;;;;5010086;28;20289;-64
2023/03/29 09:51:49;;;;;;;11.07;7.23;;;7.80;99.90;;;;;;4979467;28;20455;-65
2023/03/29 09:54:16;;;;;;;13.17;7.20;;;7.80;99.90;;;;;;4968658;28;20582;-64
2023/03/29 09:56:43;;;;;;;12.17;7.57;;;7.90;99.90;;;;;;5002069;28;20449;-64
2023/03/29 09:59:11;;;;;;;10.23;7.53;;;7.90;99.90;;;;;;5020159;28;20204;-64
2023/03/29 10:01:44;;;;;;;10.97;7.57;;;7.90;99.90;;;;;;4998890;28;20202;-64
2023/03/29 10:04:12;;;;;;;10.93;7.17;;;7.90;99.90;;;;;;5010088;28;20197;-64
2023/03/29 10:06:43;;;;;;;10.93;8.10;;;7.90;99.90;;;;;;5013808;28;20206;-64
2023/03/29 10:09:16;;;;;;;11.10;7.43;;;7.90;99.90;;;;;;5001345;28;20209;-65
2023/03/29 10:11:47;;;;;;;9.13;7.23;;;7.90;99.90;;;;;;4980424;28;20420;-64
2023/03/29 10:14:19;;;;;;;11.03;7.67;;;8.00;99.90;;;;;;5015773;28;20197;-64
2023/03/29 10:16:54;;;;;;;9.50;7.60;;;8.00;99.90;;;;;;5003181;28;20901;-64
2023/03/29 10:19:23;;;;;;;9.43;7.40;;;8.00;99.90;;;;;;5015018;28;21767;-64
2023/03/29 10:21:52;;;;;;;13.00;8.23;;;8.10;99.90;;;;;;5017692;28;20197;-64
2023/03/29 10:24:21;;;;;;;9.93;8.30;;;8.10;99.90;;;;;;4995264;28;20416;-63
2023/03/29 10:26:54;;;;;;;11.50;8.27;;;8.20;99.90;;;;;;4970308;28;20213;-64
2023/03/29 10:29:21;;;;;;;10.93;7.40;;;8.20;99.90;;;;;;5007931;28;20312;-64
2023/03/29 10:31:50;;;;;;;10.40;7.30;;;8.20;99.90;;;;;;4992587;28;21012;-64
2023/03/29 10:34:18;;;;;;;9.70;7.67;;;8.30;99.90;;;;;;5000279;28;20685;-64
2023/03/29 10:36:52;;;;;;;12.88;7.45;;;8.30;99.90;;;;;;5005077;28;20237;-64
2023/03/29 10:39:19;;;;;;;11.93;7.80;;;8.30;99.90;;;;;;4998148;28;20712;-64
2023/03/29 10:41:51;;;;;;;10.10;7.47;;;8.30;99.90;;;;;;4980484;28;20950;-64
2023/03/29 10:44:28;;;;;;;12.25;8.20;;;8.40;99.90;;;;;;5022697;28;20248;-64
2023/03/29 10:46:56;;;;;;;10.60;7.50;;;8.40;99.90;;;;;;5000279;28;20276;-64
2023/03/29 10:49:24;;;;;;;10.47;7.60;;;8.40;99.90;;;;;;5011931;28;20402;-64
2023/03/29 10:51:52;;;;;;;14.70;8.30;;;8.40;99.90;;;;;;5018838;28;20203;-64
2023/03/29 10:54:23;;;;;;;11.15;7.60;;;8.40;99.90;;;;;;5012687;28;20671;-64
2023/03/29 10:56:54;;;;;;;14.40;8.33;;;8.40;99.90;;;;;;4973684;28;20805;-65
2023/03/29 10:59:27;;;;;;;10.67;7.87;;;8.50;99.90;;;;;;5022977;28;20206;-64
2023/03/29 11:02:28;;;;;;;10.70;7.43;;;8.50;99.90;;;;;;5022772;28;20198;-64
2023/03/29 11:05:08;;;;;;;12.02;7.63;;;8.50;99.90;;;;;;5013967;28;20222;-64
2023/03/29 11:07:38;;;;;;;11.52;8.40;;;8.60;99.90;;;;;;5012829;28;20193;-64
2023/03/29 11:10:23;;;;;;;14.25;7.90;;;8.70;99.90;;;;;;4991501;28;20230;-65
2023/03/29 11:12:56;;;;;;;12.07;8.32;;;8.80;99.90;;;;;;5022130;28;20753;-64
2023/03/29 11:15:41;;;;;;;11.50;8.18;;;8.90;99.90;;;;;;5004459;28;20903;-64
2023/03/29 11:18:30;;;;;;;11.68;8.10;;;9.10;99.90;;;;;;5008078;28;20288;-64
2023/03/29 11:21:04;;;;;;;13.45;7.93;;;9.10;99.90;;;;;;5011939;28;20233;-64
2023/03/29 11:23:40;;;;;;;11.38;7.75;;;9.10;99.90;;;;;;5014828;28;20247;-64
2023/03/29 11:26:14;;;;;;;13.85;8.18;;;9.10;99.90;;;;;;4991253;28;20755;-64
2023/03/29 11:28:48;;;;;;;14.07;8.05;;;9.10;99.90;;;;;;5019684;28;20263;-64
2023/03/29 11:31:22;;;;;;;11.38;7.95;;;9.10;99.90;;;;;;5016107;28;20192;-64
2023/03/29 11:34:02;;;;;;;11.38;7.93;;;9.20;99.90;;;;;;4999357;28;20224;-64
2023/03/29 11:36:35;;;;;;;18.40;8.63;;;9.40;99.90;;;;;;5007599;28;20506;-64
2023/03/29 11:39:12;;;;;;;12.88;8.27;;;9.40;99.90;;;;;;5015356;28;20468;-64
2023/03/29 11:41:41;;;;;;;12.38;8.32;;;9.50;99.90;;;;;;4985883;28;20251;-64
2023/03/29 11:44:16;;;;;;;11.30;8.40;;;9.60;99.90;;;;;;5021220;28;20198;-64
2023/03/29 11:46:49;;;;;;;11.80;7.80;;;9.60;99.90;;;;;;5020399;28;20201;-64
2023/03/29 11:49:22;;;;;;;11.20;9.32;;;9.60;99.90;;;;;;5007813;28;20189;-64
2023/03/29 11:51:55;;;;;;;15.25;9.40;;;9.50;99.90;;;;;;5018102;28;20239;-64
2023/03/29 11:54:28;;;;;;;10.75;8.93;;;9.50;99.90;;;;;;5018590;28;20712;-65
2023/03/29 11:57:00;;;;;;;11.88;8.82;;;9.60;99.90;;;;;;5015759;28;21252;-64
2023/03/29 11:59:32;;;;;;;12.93;8.20;;;9.70;99.90;;;;;;4981591;28;20694;-64
2023/03/29 12:02:03;;;;;;;12.50;8.90;;;9.60;99.90;;;;;;5013402;28;20198;-64
2023/03/29 12:04:38;;;;;;;10.20;7.80;;;9.70;99.90;;;;;;4979608;28;20544;-65
2023/03/29 12:07:11;;;;;;;11.55;8.55;;;9.80;99.90;;;;;;5010944;28;20217;-64
2023/03/29 12:09:41;;;;;;;15.57;9.43;;;9.80;99.90;;;;;;5004131;28;21469;-65
2023/03/29 12:12:14;;;;;;;11.80;8.38;;;9.70;99.90;;;;;;5022161;28;20336;-65
2023/03/29 12:14:53;;;;;;;10.57;8.05;;;9.70;99.90;;;;;;4991170;28;20248;-64
2023/03/29 12:17:26;;;;;;;12.10;8.48;;;9.70;99.90;;;;;;4990575;28;20221;-64
2023/03/29 12:20:03;;;;;;;10.68;9.00;;;9.80;99.90;;;;;;4995002;28;20830;-64
2023/03/29 12:22:31;;;;;;;13.57;10.07;;;9.70;99.90;;;;;;5010864;28;20696;-64
2023/03/29 12:25:00;;;;;;;12.30;9.70;;;9.80;99.90;;;;;;4991363;28;20527;-65
2023/03/29 12:27:29;;;;;;;13.13;9.68;;;9.80;99.90;;;;;;5019519;28;20208;-64
2023/03/29 12:30:29;;;;;;;13.50;9.00;;;9.80;99.90;;;;;;4984954;28;20431;-64
2023/03/29 12:33:24;;;;;;;11.40;8.13;;;9.80;99.90;;;;;;5013260;28;20202;-64
2023/03/29 12:36:05;;;;;;;18.42;10.27;;;9.90;99.90;;;;;;4991008;28;20330;-65
2023/03/29 12:38:32;;;;;;;10.80;7.93;;;10.00;99.90;;;;;;5019622;28;20232;-64
2023/03/29 12:41:01;;;;;;;10.68;8.77;;;10.00;99.90;;;;;;4987589;28;20237;-65
2023/03/29 12:43:32;;;;;;;13.30;8.40;;;10.10;99.90;;;;;;5023883;28;20778;-64
2023/03/29 12:46:06;;;;;;;12.30;8.80;;;10.20;99.90;;;;;;4981495;28;20284;-64
2023/03/29 12:48:34;;;;;;;10.82;8.45;;;10.30;99.90;;;;;;5008065;28;20787;-64
2023/03/29 12:51:05;;;;;;;13.98;9.02;;;10.40;99.90;;;;;;5006792;28;21242;-65
2023/03/29 12:53:34;;;;;;;17.52;9.52;;;10.50;99.90;;;;;;4998043;28;20209;-65
2023/03/29 12:56:12;;;;;;;14.15;9.63;;;10.60;99.90;;;;;;5008815;28;20589;-65
2023/03/29 12:58:54;;;;;;;13.35;8.88;;;10.70;99.90;;;;;;5011059;28;20225;-64
2023/03/29 13:01:27;;;;;;;13.73;8.07;;;10.80;99.90;;;;;;4957361;28;20209;-64
2023/03/29 13:04:10;;;;;;;16.17;8.73;;;10.80;99.90;;;;;;5012207;28;20208;-65
2023/03/29 13:07:01;;;;;;;12.45;8.20;;;10.80;99.90;;;;;;4992764;28;20233;-64
2023/03/29 13:09:30;;;;;;;10.18;8.02;;;10.90;99.90;;;;;;4982975;28;20213;-64